Time;durP1;ratioP1;P1;durP2;ratioP2;P2;SDS_P1;SDS_P2;PMS_P1;PMS_P2;Temp;Humidity;BMP_temperature;BMP_pressure;BME280_temperature;BME280_humidity;BME280_pressure;Samples;Min_cycle;Max_cycle;Signal;HPM_P1;HPM_P2
2023/01/22 00:01:23;;;;;;;25.20;11.40;;;;;;;4.34;82.60;99668.11;104887;1265;75228;-21
2023/01/22 00:03:52;;;;;;;23.20;10.90;;;;;;;4.08;83.32;99667.21;104912;1267;61179;-23
2023/01/22 00:06:20;;;;;;;19.00;8.30;;;;;;;3.88;84.31;99668.96;105118;1267;61786;-23
2023/01/22 00:08:48;;;;;;;19.50;9.40;;;;;;;4.23;84.53;99671.16;105030;1269;75516;-23
2023/01/22 00:11:16;;;;;;;24.70;11.40;;;;;;;4.78;83.45;99669.50;104725;1272;75480;-23
2023/01/22 00:13:43;;;;;;;21.90;9.70;;;;;;;4.80;82.45;99665.13;104837;1269;75309;-23
2023/01/22 00:16:12;;;;;;;21.50;10.60;;;;;;;4.64;82.38;99669.30;104925;1266;62790;-23
2023/01/22 00:18:39;;;;;;;25.60;12.30;;;;;;;4.36;82.79;99672.67;104908;1266;61668;-23
2023/01/22 00:21:07;;;;;;;31.70;13.20;;;;;;;4.08;83.58;99673.39;104959;1264;75573;-24
2023/01/22 00:23:34;;;;;;;18.10;8.20;;;;;;;3.69;85.52;99671.60;104754;1264;76576;-23
2023/01/22 00:26:03;;;;;;;20.40;10.00;;;;;;;4.06;85.52;99669.86;104846;1269;75230;-23
2023/01/22 00:28:30;;;;;;;22.40;10.60;;;;;;;4.43;83.76;99673.19;104876;1264;62913;-22
2023/01/22 00:31:01;;;;;;;29.50;12.60;;;;;;;4.50;83.60;99677.33;104833;1264;61419;-22
2023/01/22 00:33:28;;;;;;;29.10;14.40;;;;;;;4.26;83.84;99672.77;104888;1271;75366;-22
2023/01/22 00:35:56;;;;;;;28.70;14.30;;;;;;;3.77;85.51;99676.98;104791;1267;75502;-22
2023/01/22 00:38:23;;;;;;;25.60;12.80;;;;;;;3.69;86.41;99679.20;104889;1269;74106;-22
2023/01/22 00:40:50;;;;;;;19.10;9.30;;;;;;;3.50;87.11;99678.95;105034;1265;63271;-22
2023/01/22 00:43:17;;;;;;;26.70;11.50;;;;;;;3.95;87.27;99684.45;104876;1264;61838;-22
2023/01/22 00:45:45;;;;;;;24.70;10.80;;;;;;;4.55;85.54;99693.13;104836;1271;75490;-22
2023/01/22 00:48:12;;;;;;;19.70;10.80;;;;;;;4.62;83.77;99696.59;104805;1267;75881;-22
2023/01/22 00:50:39;;;;;;;23.20;11.10;;;;;;;4.38;83.51;99692.35;104793;1267;75167;-22
2023/01/22 00:53:06;;;;;;;21.10;10.90;;;;;;;4.04;83.98;99694.71;104846;1267;62687;-22
2023/01/22 00:55:33;;;;;;;21.60;10.70;;;;;;;3.77;85.00;99695.16;104748;1267;62525;-22
2023/01/22 00:58:01;;;;;;;13.80;7.50;;;;;;;3.66;85.31;99705.23;104740;1270;75194;-22
2023/01/22 01:00:28;;;;;;;14.40;7.50;;;;;;;4.06;85.04;99709.21;104827;1267;75548;-22
2023/01/22 01:05:41;;;;;;;19.50;9.90;;;;;;;4.45;82.90;99716.62;104792;1266;61889;-22
2023/01/22 01:08:08;;;;;;;20.30;11.60;;;;;;;4.24;83.39;99723.36;104920;1264;61472;-22
2023/01/22 01:10:35;;;;;;;19.50;9.60;;;;;;;3.98;83.90;99721.75;105193;1264;75485;-22
2023/01/22 01:13:03;;;;;;;15.50;8.50;;;;;;;3.77;84.20;99719.40;105147;1263;76546;-22
2023/01/22 01:15:30;;;;;;;13.60;7.20;;;;;;;3.60;84.81;99721.30;105147;1263;74023;-22
2023/01/22 01:17:57;;;;;;;15.10;7.60;;;;;;;4.08;85.06;99722.71;105186;1262;62947;-22
2023/01/22 01:20:24;;;;;;;18.70;9.10;;;;;;;4.57;83.39;99728.97;105132;1266;62658;-22
2023/01/22 01:22:52;;;;;;;19.40;9.40;;;;;;;4.65;82.93;99726.20;105157;1266;75413;-22
2023/01/22 01:25:19;;;;;;;19.60;10.90;;;;;;;4.46;83.06;99729.45;105136;1266;77030;-22
2023/01/22 01:27:46;;;;;;;18.40;10.50;;;;;;;4.19;83.43;99736.33;104964;1263;75189;-22
2023/01/22 01:30:15;;;;;;;15.00;8.80;;;;;;;3.97;84.08;99736.92;104941;1265;62361;-22
2023/01/22 01:32:43;;;;;;;9.70;5.60;;;;;;;3.78;84.29;99745.45;104817;1261;62999;-22
2023/01/22 01:35:10;;;;;;;17.30;7.70;;;;;;;4.17;84.40;99745.52;105021;1266;74376;-22
2023/01/22 01:37:38;;;;;;;15.80;8.20;;;;;;;4.70;83.49;99746.94;105160;1263;75700;-22
2023/01/22 01:40:06;;;;;;;14.30;7.80;;;;;;;4.81;83.08;99749.21;105194;1267;75447;-22
2023/01/22 01:42:34;;;;;;;18.70;8.90;;;;;;;4.61;82.89;99747.34;105052;1269;61254;-22
2023/01/22 01:45:18;;;;;;;20.00;10.20;;;;;;;4.26;83.12;99742.38;104980;1264;62116;-22
2023/01/22 01:48:07;;;;;;;25.80;13.30;;;;;;;3.81;84.55;99741.70;104819;1264;75592;-22
2023/01/22 01:50:34;;;;;;;19.00;10.20;;;;;;;2.97;89.60;99735.84;104947;1261;76726;-23
2023/01/22 01:53:02;;;;;;;22.40;11.00;;;;;;;3.65;89.43;99740.67;104972;1264;73852;-22
2023/01/22 01:55:29;;;;;;;19.60;10.30;;;;;;;4.12;87.94;99744.70;105170;1263;61837;-22
2023/01/22 01:58:00;;;;;;;18.40;10.20;;;;;;;4.17;86.62;99755.66;105269;1263;61827;-22
2023/01/22 02:00:27;;;;;;;18.30;8.40;;;;;;;4.04;85.82;99769.80;105178;1269;75497;-23
2023/01/22 02:02:55;;;;;;;23.60;10.90;;;;;;;3.73;85.63;99774.84;104994;1268;75895;-22
2023/01/22 02:05:23;;;;;;;14.40;7.00;;;;;;;3.59;86.28;99771.27;105245;1266;74815;-22
2023/01/22 02:07:50;;;;;;;13.70;8.20;;;;;;;4.11;86.09;99774.29;104984;1263;61918;-22
2023/01/22 02:10:17;;;;;;;17.60;9.10;;;;;;;4.49;84.65;99771.62;105194;1264;61537;-22
2023/01/22 02:12:45;;;;;;;16.90;8.50;;;;;;;4.47;83.99;99766.70;105033;1263;75567;-22
2023/01/22 02:15:12;;;;;;;15.40;9.10;;;;;;;4.27;83.84;99772.42;104852;1264;76094;-22
2023/01/22 02:17:39;;;;;;;21.70;10.20;;;;;;;4.03;84.50;99772.92;105068;1269;74106;-23
2023/01/22 02:20:07;;;;;;;17.00;8.20;;;;;;;3.77;84.72;99774.86;104941;1266;62103;-22
2023/01/22 02:22:35;;;;;;;12.30;7.50;;;;;;;3.70;85.34;99772.41;104926;1263;61433;-22
2023/01/22 02:25:04;;;;;;;16.20;8.70;;;;;;;4.34;84.79;99773.66;104991;1267;74269;-22
2023/01/22 02:27:31;;;;;;;15.40;9.10;;;;;;;4.63;83.22;99773.24;105013;1263;76802;-22
2023/01/22 02:29:58;;;;;;;14.80;8.40;;;;;;;4.53;83.18;99770.21;105502;1257;75170;-22
2023/01/22 02:32:30;;;;;;;18.50;9.30;;;;;;;4.27;83.29;99770.35;105646;1254;61918;-22
2023/01/22 02:34:57;;;;;;;15.10;8.80;;;;;;;3.98;84.14;99772.09;105615;1254;62728;-22
2023/01/22 02:37:24;;;;;;;11.90;6.90;;;;;;;3.74;84.58;99773.77;105647;1260;75475;-22
2023/01/22 02:39:52;;;;;;;17.30;8.30;;;;;;;4.10;84.97;99771.74;105594;1254;76652;-22
2023/01/22 02:42:19;;;;;;;15.70;8.10;;;;;;;4.49;83.81;99777.13;105527;1254;74342;-22
2023/01/22 02:44:48;;;;;;;16.20;8.80;;;;;;;4.44;83.05;99779.90;105462;1256;63009;-22
2023/01/22 02:47:16;;;;;;;17.40;8.90;;;;;;;4.21;83.54;99782.09;105611;1259;62809;-22
2023/01/22 02:49:43;;;;;;;14.30;8.70;;;;;;;3.93;83.91;99786.89;105310;1260;73559;-22
2023/01/22 02:52:10;;;;;;;13.60;7.20;;;;;;;3.67;84.51;99787.46;105565;1259;75907;-22
2023/01/22 02:54:37;;;;;;;13.50;8.10;;;;;;;3.66;85.24;99783.89;105550;1260;75231;-22
2023/01/22 02:57:04;;;;;;;14.80;8.90;;;;;;;4.11;84.80;99784.09;105509;1260;63157;-22
2023/01/22 02:59:33;;;;;;;15.40;8.60;;;;;;;4.27;83.95;99782.88;105432;1260;62789;-22
2023/01/22 03:02:01;;;;;;;13.10;7.30;;;;;;;4.12;83.79;99781.12;105344;1254;75597;-22
2023/01/22 03:04:28;;;;;;;15.70;9.40;;;;;;;3.86;83.70;99787.90;105506;1259;76812;-22
2023/01/22 03:06:55;;;;;;;13.00;8.70;;;;;;;3.57;84.40;99790.11;105385;1259;75303;-23
2023/01/22 03:09:25;;;;;;;12.60;6.90;;;;;;;3.45;85.12;99786.63;105656;1254;62512;-22
2023/01/22 03:11:52;;;;;;;15.20;8.20;;;;;;;3.94;85.19;99791.84;105639;1262;62858;-22
2023/01/22 03:22:46;;;;;;;16.10;8.40;;;;;;;3.51;84.66;99797.20;105624;1259;62047;-23
2023/01/22 03:25:13;;;;;;;12.50;6.80;;;;;;;3.24;86.15;99801.02;105631;1254;61693;-22
2023/01/22 03:28:07;;;;;;;14.50;7.90;;;;;;;3.63;85.98;99805.48;105639;1260;74379;-22
2023/01/22 03:30:29;;;;;;;13.70;7.90;;;;;;;4.19;84.53;99805.75;105687;1259;77291;-22
2023/01/22 03:32:56;;;;;;;14.80;8.50;;;;;;;4.19;83.82;99805.23;105634;1260;73930;-23
2023/01/22 03:35:24;;;;;;;14.50;7.50;;;;;;;3.96;83.96;99811.85;105628;1254;61501;-22
2023/01/22 03:38:02;;;;;;;13.40;7.50;;;;;;;3.69;84.30;99812.80;105656;1254;61815;-23
2023/01/22 03:40:29;;;;;;;6.90;4.90;;;;;;;3.42;85.05;99813.20;105647;1254;76215;-23
2023/01/22 03:42:56;;;;;;;16.30;8.20;;;;;;;3.67;85.44;99814.23;105608;1259;75717;-22
2023/01/22 03:45:23;;;;;;;9.80;5.90;;;;;;;4.09;84.20;99812.54;105588;1254;75105;-23
2023/01/22 03:47:52;;;;;;;12.90;7.80;;;;;;;4.03;83.62;99811.56;105249;1253;61847;-22
2023/01/22 03:50:25;;;;;;;14.90;8.60;;;;;;;3.78;84.13;99813.64;105385;1260;61601;-22
2023/01/22 03:52:54;;;;;;;13.90;8.20;;;;;;;3.52;84.62;99813.30;105427;1259;76318;-22
2023/01/22 03:55:21;;;;;;;10.90;6.60;;;;;;;3.43;85.48;99810.77;105673;1260;77015;-22
2023/01/22 03:57:48;;;;;;;14.20;7.50;;;;;;;3.89;85.01;99811.45;105647;1259;75322;-23
2023/01/22 04:00:18;;;;;;;9.40;5.50;;;;;;;4.04;83.67;99796.26;105694;1260;62548;-23
2023/01/22 04:02:48;;;;;;;9.20;5.30;;;;;;;3.79;83.76;99790.93;105579;1254;61526;-22
2023/01/22 04:05:18;;;;;;;11.80;6.50;;;;;;;3.53;84.69;99792.15;105585;1254;76069;-22
2023/01/22 04:07:48;;;;;;;12.60;8.00;;;;;;;3.26;85.41;99799.55;105571;1260;75719;-22
2023/01/22 04:10:16;;;;;;;10.60;6.70;;;;;;;3.02;86.71;99803.23;105538;1262;75217;-23
2023/01/22 04:12:44;;;;;;;11.00;6.60;;;;;;;3.57;86.14;99807.09;105714;1260;63119;-22
2023/01/22 04:15:13;;;;;;;11.00;6.70;;;;;;;3.89;84.67;99813.39;105636;1255;61827;-22
2023/01/22 04:17:40;;;;;;;10.20;6.20;;;;;;;3.76;83.96;99815.61;105660;1254;76204;-22
2023/01/22 04:20:28;;;;;;;10.90;7.10;;;;;;;3.47;84.64;99812.83;105612;1254;75751;-22
2023/01/22 04:22:58;;;;;;;8.60;5.10;;;;;;;3.23;85.52;99819.77;105612;1257;75195;-23
2023/01/22 04:25:26;;;;;;;11.50;6.30;;;;;;;3.35;86.04;99820.67;105591;1255;62318;-22
2023/01/22 04:27:53;;;;;;;9.90;6.00;;;;;;;3.76;85.23;99817.51;105606;1254;61100;-22
2023/01/22 04:30:21;;;;;;;11.30;7.10;;;;;;;3.80;84.40;99815.97;105476;1260;76295;-22
2023/01/22 04:32:55;;;;;;;11.50;7.20;;;;;;;3.56;84.49;99820.88;105523;1260;75771;-22
2023/01/22 04:35:30;;;;;;;11.40;6.50;;;;;;;3.32;85.05;99826.80;105655;1254;73868;-22
2023/01/22 04:37:58;;;;;;;7.60;4.70;;;;;;;3.17;85.74;99837.48;105700;1255;62597;-23
2023/01/22 04:40:25;;;;;;;17.30;9.70;;;;;;;3.69;85.79;99841.80;105415;1254;62675;-22
2023/01/22 04:42:53;;;;;;;10.30;6.60;;;;;;;4.23;84.28;99846.16;105452;1260;75649;-22
2023/01/22 04:45:20;;;;;;;12.90;8.60;;;;;;;4.28;83.57;99850.77;105358;1262;77080;-22
2023/01/22 04:47:48;;;;;;;14.60;9.30;;;;;;;4.08;83.50;99852.77;105335;1259;74569;-23
2023/01/22 04:50:23;;;;;;;14.80;9.40;;;;;;;3.79;84.04;99841.59;105260;1258;61063;-22
2023/01/22 04:52:52;;;;;;;12.00;7.70;;;;;;;3.49;84.46;99843.83;105469;1260;62475;-22
2023/01/22 04:55:20;;;;;;;10.40;5.90;;;;;;;3.32;85.40;99839.14;105483;1254;76253;-22
2023/01/22 04:57:56;;;;;;;10.70;6.50;;;;;;;3.78;85.21;99839.22;105610;1259;76756;-22
2023/01/22 05:00:24;;;;;;;10.50;6.80;;;;;;;4.13;83.86;99842.62;105528;1262;74041;-22
2023/01/22 05:02:56;;;;;;;12.10;7.10;;;;;;;4.05;83.25;99847.23;105636;1254;61894;-22
2023/01/22 05:05:25;;;;;;;12.30;6.80;;;;;;;3.80;83.80;99851.52;105578;1259;61915;-22
2023/01/22 05:07:52;;;;;;;12.60;7.20;;;;;;;3.54;84.37;99856.85;105592;1260;76310;-22
2023/01/22 05:10:20;;;;;;;9.30;6.30;;;;;;;3.34;85.14;99857.08;105603;1260;74516;-22
2023/01/22 05:12:48;;;;;;;12.90;7.30;;;;;;;3.72;85.05;99856.48;105623;1260;74113;-23
2023/01/22 05:15:17;;;;;;;7.80;5.50;;;;;;;4.04;84.03;99856.04;105727;1254;62591;-22
2023/01/22 05:17:53;;;;;;;8.50;6.30;;;;;;;3.93;83.33;99854.42;105589;1259;62923;-22
2023/01/22 05:20:21;;;;;;;14.00;8.10;;;;;;;3.64;83.87;99852.65;105547;1253;74993;-22
2023/01/22 05:22:48;;;;;;;7.00;5.00;;;;;;;3.33;84.81;99858.65;105644;1260;76801;-23
2023/01/22 05:25:19;;;;;;;12.90;8.00;;;;;;;3.45;85.59;99858.38;105670;1260;74109;-23
2023/01/22 05:27:46;;;;;;;12.10;7.40;;;;;;;3.83;84.65;99857.23;105640;1259;62722;-23
2023/01/22 05:30:23;;;;;;;8.50;5.90;;;;;;;3.83;83.92;99861.70;105653;1256;61524;-22
2023/01/22 05:32:58;;;;;;;16.70;8.00;;;;;;;3.60;84.30;99862.41;105646;1258;76353;-23
2023/01/22 05:35:27;;;;;;;12.20;6.70;;;;;;;3.33;85.14;99861.42;105528;1258;75963;-23
2023/01/22 05:37:55;;;;;;;13.30;5.90;;;;;;;3.39;85.49;99879.55;105467;1260;74179;-23
2023/01/22 05:40:23;;;;;;;17.80;9.30;;;;;;;3.76;84.72;99872.30;105624;1255;62807;-22
2023/01/22 05:42:51;;;;;;;18.50;10.10;;;;;;;3.80;84.05;99880.70;105507;1255;62713;-23
2023/01/22 05:45:20;;;;;;;15.90;9.20;;;;;;;3.65;84.29;99877.18;105549;1260;76230;-22
2023/01/22 05:48:09;;;;;;;15.50;7.60;;;;;;;3.33;84.74;99885.80;105487;1260;75872;-23
2023/01/22 05:50:56;;;;;;;15.90;8.30;;;;;;;3.23;85.60;99887.20;105471;1267;73103;-23
2023/01/22 05:53:23;;;;;;;6.60;4.80;;;;;;;3.60;85.00;99901.40;105348;1254;61784;-22
2023/01/22 05:55:51;;;;;;;9.20;6.30;;;;;;;3.67;83.87;99897.86;105357;1254;61183;-22
2023/01/22 05:58:18;;;;;;;9.40;6.40;;;;;;;3.47;84.02;99901.73;105480;1260;75775;-22
2023/01/22 06:00:46;;;;;;;8.90;5.70;;;;;;;3.18;84.56;99907.80;105513;1260;75787;-23
2023/01/22 06:03:14;;;;;;;8.50;5.40;;;;;;;2.96;85.46;99904.84;105545;1259;73838;-23
2023/01/22 06:05:45;;;;;;;9.30;5.70;;;;;;;3.33;85.49;99904.84;105641;1256;63128;-22
2023/01/22 06:08:13;;;;;;;7.60;5.10;;;;;;;3.68;84.01;99906.77;105483;1258;62935;-22
2023/01/22 06:10:48;;;;;;;7.00;4.10;;;;;;;3.56;82.94;99901.73;105438;1260;76301;-22
2023/01/22 06:13:17;;;;;;;4.20;3.80;;;;;;;3.24;83.05;99910.67;105530;1264;75416;-23
2023/01/22 06:15:45;;;;;;;6.70;4.00;;;;;;;2.91;84.02;99921.81;105490;1265;75315;-22
2023/01/22 06:18:24;;;;;;;5.00;2.90;;;;;;;3.03;84.76;99927.58;105639;1254;61141;-22
2023/01/22 06:20:51;;;;;;;8.60;4.20;;;;;;;3.41;83.73;99928.23;105475;1259;62822;-22
2023/01/22 06:23:21;;;;;;;8.10;4.30;;;;;;;3.43;82.86;99929.39;105527;1259;76454;-22
2023/01/22 06:25:52;;;;;;;5.70;3.90;;;;;;;3.25;83.22;99931.40;105507;1259;77032;-22
2023/01/22 06:28:20;;;;;;;4.50;3.10;;;;;;;3.03;83.74;99928.09;105246;1261;74201;-22
2023/01/22 06:30:50;;;;;;;5.80;4.20;;;;;;;3.08;84.43;99931.00;105485;1260;63421;-22
2023/01/22 06:33:17;;;;;;;7.80;5.80;;;;;;;3.50;83.34;99929.29;105331;1254;61446;-22
2023/01/22 06:35:45;;;;;;;3.00;2.60;;;;;;;3.53;82.87;99930.37;105329;1259;75315;-22
2023/01/22 06:38:12;;;;;;;6.50;5.80;;;;;;;3.31;82.79;99938.73;105375;1260;77032;-23
2023/01/22 06:40:40;;;;;;;6.40;4.50;;;;;;;2.98;83.30;99931.84;105461;1259;73834;-23
2023/01/22 06:43:09;;;;;;;5.70;3.80;;;;;;;2.78;84.28;99928.92;105516;1259;63645;-23
2023/01/22 06:45:37;;;;;;;6.70;4.40;;;;;;;3.15;83.84;99931.25;105609;1259;62790;-22
2023/01/22 06:48:06;;;;;;;8.90;5.40;;;;;;;3.26;82.99;99933.42;105503;1260;75114;-22
2023/01/22 06:50:33;;;;;;;7.40;5.10;;;;;;;3.09;82.98;99936.78;105483;1254;76785;-22
2023/01/22 06:53:01;;;;;;;4.90;3.40;;;;;;;2.84;83.56;99937.31;105548;1257;74073;-22
2023/01/22 06:55:28;;;;;;;4.90;3.10;;;;;;;2.74;84.49;99940.92;105423;1260;63706;-23
2023/01/22 06:57:55;;;;;;;7.30;4.00;;;;;;;3.14;83.87;99946.04;105594;1254;61875;-23
2023/01/22 07:00:23;;;;;;;7.40;5.00;;;;;;;3.26;83.29;99948.52;105571;1260;76464;-23
2023/01/22 07:02:51;;;;;;;10.30;5.70;;;;;;;3.13;83.26;99952.42;105478;1259;75519;-22
2023/01/22 07:05:21;;;;;;;6.10;4.30;;;;;;;2.87;83.67;99950.92;105472;1260;74280;-23
2023/01/22 07:07:52;;;;;;;6.30;4.60;;;;;;;2.75;84.56;99963.20;105634;1254;62256;-23
2023/01/22 07:10:19;;;;;;;10.40;6.50;;;;;;;3.15;84.11;99974.16;105653;1254;62808;-22
2023/01/22 07:12:48;;;;;;;8.60;5.20;;;;;;;3.36;83.43;99978.20;105745;1260;76264;-22
2023/01/22 07:15:16;;;;;;;5.70;3.60;;;;;;;3.26;83.24;99976.68;105698;1260;75788;-22
2023/01/22 07:17:48;;;;;;;10.10;6.20;;;;;;;3.01;83.63;99984.25;105554;1254;75273;-23
2023/01/22 07:20:16;;;;;;;4.70;2.70;;;;;;;2.81;84.50;99980.45;105446;1253;62033;-23
2023/01/22 07:22:44;;;;;;;6.80;4.30;;;;;;;2.92;85.14;99984.40;105498;1255;62833;-22
2023/01/22 07:25:11;;;;;;;9.00;5.90;;;;;;;3.36;84.16;99983.52;105462;1259;76228;-22
2023/01/22 07:27:38;;;;;;;9.30;5.70;;;;;;;3.52;83.79;99982.60;105511;1260;76766;-23
2023/01/22 07:30:06;;;;;;;9.20;6.30;;;;;;;3.42;83.34;99989.16;105522;1254;75216;-23
2023/01/22 07:32:34;;;;;;;10.00;5.50;;;;;;;3.15;83.90;99988.58;105321;1255;61779;-23
2023/01/22 07:35:01;;;;;;;8.40;5.50;;;;;;;3.01;84.71;99990.08;105375;1261;62324;-23
2023/01/22 07:37:28;;;;;;;8.80;6.10;;;;;;;3.50;84.49;99993.84;105524;1255;76339;-22
2023/01/22 07:39:56;;;;;;;11.90;6.70;;;;;;;3.74;83.37;99998.09;105869;1260;76743;-23
2023/01/22 07:42:23;;;;;;;9.50;5.70;;;;;;;3.65;83.10;100005.62;105805;1258;75217;-23
2023/01/22 07:44:50;;;;;;;9.10;6.00;;;;;;;3.42;83.69;100001.85;105681;1259;62321;-23
2023/01/22 07:47:18;;;;;;;13.00;6.10;;;;;;;3.23;84.42;100003.05;105640;1254;62796;-23
2023/01/22 07:49:45;;;;;;;10.00;5.20;;;;;;;3.32;84.90;100004.80;105330;1260;75221;-22
2023/01/22 07:52:12;;;;;;;10.50;6.00;;;;;;;3.81;84.10;100011.91;105311;1266;75621;-22
2023/01/22 07:54:39;;;;;;;13.00;7.50;;;;;;;3.98;83.39;100016.58;105462;1254;75167;-22
2023/01/22 07:57:06;;;;;;;14.70;7.80;;;;;;;3.90;83.36;100021.02;105284;1259;63136;-22
2023/01/22 07:59:34;;;;;;;11.70;6.70;;;;;;;3.69;83.55;100023.34;105473;1255;62299;-23
2023/01/22 08:02:01;;;;;;;10.30;5.60;;;;;;;3.44;84.14;100021.53;105585;1260;76066;-23
2023/01/22 08:04:29;;;;;;;9.80;5.50;;;;;;;3.59;84.76;100026.83;105551;1260;77089;-22
2023/01/22 08:06:57;;;;;;;12.60;7.50;;;;;;;4.12;83.58;100021.55;105518;1258;75193;-22
2023/01/22 08:09:24;;;;;;;11.00;5.60;;;;;;;4.20;82.66;100022.27;105444;1255;62880;-22
2023/01/22 08:11:52;;;;;;;12.00;7.50;;;;;;;3.96;82.47;100020.79;105426;1258;61692;-23
2023/01/22 08:14:19;;;;;;;13.70;7.80;;;;;;;3.67;83.50;100022.75;105487;1258;75096;-22
2023/01/22 08:16:46;;;;;;;7.90;4.90;;;;;;;3.48;84.67;100017.78;105560;1259;75606;-22
2023/01/22 08:19:14;;;;;;;12.00;6.90;;;;;;;3.68;84.87;100020.11;105446;1257;75155;-22
2023/01/22 08:21:41;;;;;;;14.20;8.80;;;;;;;4.14;83.92;100023.20;105458;1254;61497;-22
2023/01/22 08:24:09;;;;;;;12.70;7.10;;;;;;;4.21;83.19;100029.80;105284;1260;62459;-22
2023/01/22 08:26:38;;;;;;;12.60;7.00;;;;;;;4.08;83.25;100019.65;105502;1261;75992;-22
2023/01/22 08:29:05;;;;;;;13.60;8.00;;;;;;;3.87;83.86;100025.27;105367;1259;76484;-22
2023/01/22 08:31:33;;;;;;;10.80;6.10;;;;;;;3.70;84.46;100024.16;105493;1260;74983;-22
2023/01/22 08:34:01;;;;;;;15.10;7.70;;;;;;;4.03;84.64;100020.86;105493;1255;62877;-22
2023/01/22 08:36:28;;;;;;;15.60;8.40;;;;;;;4.33;83.90;100026.23;105584;1254;62850;-22
2023/01/22 08:38:55;;;;;;;12.20;7.30;;;;;;;4.34;83.45;100029.12;105493;1260;76025;-23
2023/01/22 08:41:23;;;;;;;11.50;6.00;;;;;;;4.21;83.73;100023.45;105459;1254;76773;-22
2023/01/22 08:43:50;;;;;;;10.90;5.50;;;;;;;3.95;84.15;100024.09;105526;1259;75056;-22
2023/01/22 08:46:18;;;;;;;8.10;5.10;;;;;;;4.20;84.66;100027.27;105571;1254;61536;-22
2023/01/22 08:48:47;;;;;;;12.40;7.10;;;;;;;4.57;83.14;100029.38;105504;1254;63137;-22
2023/01/22 08:51:15;;;;;;;12.50;7.20;;;;;;;4.56;82.99;100032.37;105709;1257;74993;-22
2023/01/22 08:53:42;;;;;;;8.30;5.30;;;;;;;4.44;83.31;100039.56;105344;1254;76802;-23
2023/01/22 08:56:09;;;;;;;9.70;5.40;;;;;;;4.22;83.91;100040.76;105451;1260;74543;-22
2023/01/22 08:58:37;;;;;;;12.50;7.10;;;;;;;4.37;84.58;100045.86;105440;1259;63208;-22
2023/01/22 09:01:04;;;;;;;11.30;6.10;;;;;;;4.75;83.60;100045.00;105500;1254;61484;-22
2023/01/22 09:03:31;;;;;;;15.50;9.30;;;;;;;4.76;82.75;100050.47;105759;1254;76305;-22
2023/01/22 09:05:59;;;;;;;11.30;6.00;;;;;;;4.58;82.90;100049.83;105298;1260;76191;-22
2023/01/22 09:08:26;;;;;;;11.30;5.60;;;;;;;4.33;83.61;100045.14;105546;1254;75229;-23
2023/01/22 09:10:53;;;;;;;10.90;5.10;;;;;;;4.30;84.41;100039.58;105485;1254;62657;-23
2023/01/22 09:13:20;;;;;;;8.50;5.00;;;;;;;4.86;83.64;100038.54;105446;1259;62448;-22
2023/01/22 09:15:47;;;;;;;10.10;6.60;;;;;;;5.02;82.43;100038.73;105583;1254;76307;-22
2023/01/22 09:18:14;;;;;;;10.70;5.50;;;;;;;4.86;82.36;100038.34;105615;1254;76256;-22
2023/01/22 09:20:44;;;;;;;14.20;6.10;;;;;;;4.60;82.95;100041.67;105455;1260;74895;-23
2023/01/22 09:23:11;;;;;;;11.40;5.50;;;;;;;4.39;83.83;100042.00;105425;1254;61558;-23
2023/01/22 09:25:41;;;;;;;17.20;7.20;;;;;;;4.54;84.56;100043.45;105505;1254;62963;-23
2023/01/22 09:28:11;;;;;;;11.10;6.30;;;;;;;5.05;83.37;100041.69;105522;1257;75846;-23
2023/01/22 09:30:39;;;;;;;11.80;6.30;;;;;;;5.10;82.26;100040.96;105539;1254;76930;-22
2023/01/22 09:33:07;;;;;;;12.70;6.40;;;;;;;4.89;82.50;100040.13;105497;1257;75446;-23
2023/01/22 09:35:34;;;;;;;11.00;6.80;;;;;;;4.64;83.14;100040.66;105388;1254;61758;-22
2023/01/22 09:38:04;;;;;;;9.10;5.20;;;;;;;4.53;84.07;100047.29;105582;1254;61798;-22
2023/01/22 09:40:40;;;;;;;13.30;6.90;;;;;;;5.01;83.24;100044.80;105539;1254;76227;-23
2023/01/22 09:43:15;;;;;;;11.70;6.50;;;;;;;5.17;82.31;100043.75;105548;1254;75601;-22
2023/01/22 09:45:43;;;;;;;11.60;6.90;;;;;;;5.02;82.21;100043.73;105336;1257;75139;-23
2023/01/22 09:48:13;;;;;;;11.90;6.40;;;;;;;4.66;82.82;100041.27;105511;1255;61880;-23
2023/01/22 09:50:41;;;;;;;9.30;4.70;;;;;;;4.36;84.00;100045.73;105548;1254;61762;-23
2023/01/22 09:53:12;;;;;;;8.10;4.90;;;;;;;4.62;84.04;100040.00;105358;1255;76350;-23
2023/01/22 09:55:47;;;;;;;11.50;4.70;;;;;;;4.84;83.44;100041.05;105510;1261;75972;-22
2023/01/22 09:58:19;;;;;;;10.30;5.80;;;;;;;4.74;83.10;100040.08;105464;1257;75100;-23
2023/01/22 10:00:50;;;;;;;13.40;5.30;;;;;;;4.56;83.70;100042.33;105531;1261;62830;-23
2023/01/22 10:03:42;;;;;;;10.20;5.60;;;;;;;4.38;84.70;100038.75;105484;1260;61616;-23
2023/01/22 10:06:17;;;;;;;10.10;5.30;;;;;;;4.67;84.76;100037.27;105512;1254;76279;-23
2023/01/22 10:09:08;;;;;;;9.60;4.00;;;;;;;5.08;83.19;100035.55;105271;1260;74833;-23
2023/01/22 10:11:36;;;;;;;11.20;7.30;;;;;;;5.03;82.43;100036.45;105474;1259;73881;-23
2023/01/22 10:14:11;;;;;;;13.70;7.70;;;;;;;4.85;83.00;100044.61;105664;1259;61614;-22
2023/01/22 10:16:38;;;;;;;5.50;3.10;;;;;;;4.59;83.69;100042.06;105589;1263;61686;-22
2023/01/22 10:19:11;;;;;;;10.60;5.60;;;;;;;4.62;84.44;100041.75;105638;1254;76361;-23
2023/01/22 10:21:47;;;;;;;7.50;4.50;;;;;;;5.06;83.50;100045.45;105660;1254;75839;-24
2023/01/22 10:24:14;;;;;;;11.80;6.60;;;;;;;5.10;82.57;100049.21;105543;1254;74126;-23
2023/01/22 10:26:53;;;;;;;9.40;5.10;;;;;;;4.95;82.74;100048.81;105484;1255;62899;-23
2023/01/22 10:29:30;;;;;;;12.50;5.60;;;;;;;4.76;83.50;100048.60;105605;1254;61781;-23
2023/01/22 10:32:01;;;;;;;11.50;5.60;;;;;;;4.80;84.22;100049.10;105685;1260;75176;-23
2023/01/22 10:34:31;;;;;;;9.50;5.90;;;;;;;5.31;83.13;100051.96;105691;1253;75688;-22
2023/01/22 10:37:09;;;;;;;11.50;6.30;;;;;;;5.41;82.23;100051.51;105704;1254;75066;-23
2023/01/22 10:39:39;;;;;;;9.30;4.50;;;;;;;5.25;82.36;100049.48;105629;1254;61991;-24
2023/01/22 10:42:06;;;;;;;7.40;4.40;;;;;;;5.04;82.72;100046.73;105635;1254;61530;-24
2023/01/22 10:44:34;;;;;;;9.40;5.00;;;;;;;4.90;83.66;100043.02;105589;1257;75488;-22
2023/01/22 10:47:08;;;;;;;7.40;4.10;;;;;;;5.36;83.02;100038.66;105622;1260;76967;-26
2023/01/22 10:49:35;;;;;;;9.50;4.80;;;;;;;5.62;81.62;100042.17;105445;1259;74142;-24
2023/01/22 10:52:14;;;;;;;11.40;7.20;;;;;;;5.57;81.50;100037.74;105710;1252;61817;-29
2023/01/22 10:54:42;;;;;;;10.60;5.90;;;;;;;5.40;81.98;100042.42;105542;1254;62795;-24
2023/01/22 10:57:13;;;;;;;10.30;5.30;;;;;;;5.10;82.43;100040.45;105657;1258;76311;-24
2023/01/22 10:59:40;;;;;;;7.40;4.10;;;;;;;5.19;83.19;100039.54;105659;1254;76798;-27
2023/01/22 11:02:12;;;;;;;13.30;5.70;;;;;;;5.60;81.76;100038.46;105529;1260;75003;-25
2023/01/22 11:04:39;;;;;;;10.80;7.50;;;;;;;5.60;81.55;100042.06;105659;1260;61812;-25
2023/01/22 11:07:08;;;;;;;8.20;4.20;;;;;;;5.42;81.61;100046.47;105671;1254;61074;-26
2023/01/22 11:09:53;;;;;;;9.60;5.10;;;;;;;5.19;82.28;100039.92;105702;1260;76031;-28
2023/01/22 11:12:29;;;;;;;7.30;4.80;;;;;;;5.26;82.93;100042.00;105518;1252;75657;-28
2023/01/22 11:15:23;;;;;;;12.00;6.00;;;;;;;5.62;82.40;100043.55;105699;1254;74891;-25
2023/01/22 11:17:53;;;;;;;7.10;4.20;;;;;;;5.64;81.88;100039.98;105395;1257;61834;-23
2023/01/22 11:20:22;;;;;;;7.90;4.40;;;;;;;5.49;82.00;100042.89;105344;1254;61379;-23
2023/01/22 11:23:26;;;;;;;8.10;4.00;;;;;;;5.23;82.51;100043.70;105580;1257;75324;-25
2023/01/22 11:26:02;;;;;;;8.80;5.20;;;;;;;5.45;82.69;100044.80;105742;1257;76803;-27
2023/01/22 11:28:40;;;;;;;8.60;4.90;;;;;;;5.64;81.44;100044.97;105343;1260;75421;-24
2023/01/22 11:31:12;;;;;;;9.50;5.70;;;;;;;5.57;81.62;100048.56;105243;1253;61629;-22
2023/01/22 11:34:18;;;;;;;11.60;5.70;;;;;;;5.39;82.06;100047.63;105296;1260;62551;-23
2023/01/22 11:37:14;;;;;;;7.70;4.60;;;;;;;5.23;82.97;100048.48;103990;1267;1611184;-23
2023/01/22 11:40:00;;;;;;;7.70;4.90;;;;;;;5.79;81.85;100041.04;105663;1254;76500;-23
2023/01/22 11:42:31;;;;;;;9.50;4.70;;;;;;;5.92;80.65;100044.26;105600;1258;75172;-23
2023/01/22 11:45:23;;;;;;;9.90;5.20;;;;;;;5.79;81.11;100045.67;105673;1254;61921;-23
2023/01/22 11:48:16;;;;;;;6.80;3.90;;;;;;;5.55;81.69;100043.33;105649;1255;62699;-23